sensor_id;sensor_type;location;lat;lon;timestamp;P1;durP1;ratioP1;P2;durP2;ratioP2
13560;SDS011;6852;51.686;5.314;2022-09-27T00:00:04;6.73;;;0.70;;
13560;SDS011;6852;51.686;5.314;2022-09-27T00:02:31;4.57;;;1.10;;
13560;SDS011;6852;51.686;5.314;2022-09-27T00:04:58;1.63;;;0.73;;
13560;SDS011;6852;51.686;5.314;2022-09-27T00:07:25;6.37;;;0.87;;
13560;SDS011;6852;51.686;5.314;2022-09-27T00:09:52;4.37;;;0.60;;
13560;SDS011;6852;51.686;5.314;2022-09-27T00:12:18;5.63;;;0.87;;
13560;SDS011;6852;51.686;5.314;2022-09-27T00:14:45;2.43;;;0.60;;
13560;SDS011;6852;51.686;5.314;2022-09-27T00:17:12;5.47;;;0.93;;
13560;SDS011;6852;51.686;5.314;2022-09-27T00:19:39;3.33;;;0.70;;
13560;SDS011;6852;51.686;5.314;2022-09-27T00:22:05;7.10;;;1.00;;
13560;SDS011;6852;51.686;5.314;2022-09-27T00:24:32;1.83;;;0.40;;
13560;SDS011;6852;51.686;5.314;2022-09-27T00:26:59;4.60;;;0.90;;
13560;SDS011;6852;51.686;5.314;2022-09-27T00:29:27;1.97;;;0.60;;
13560;SDS011;6852;51.686;5.314;2022-09-27T00:31:54;2.43;;;0.57;;
13560;SDS011;6852;51.686;5.314;2022-09-27T00:34:22;1.60;;;0.40;;
13560;SDS011;6852;51.686;5.314;2022-09-27T00:36:50;3.20;;;0.60;;
13560;SDS011;6852;51.686;5.314;2022-09-27T00:39:18;1.90;;;0.40;;
13560;SDS011;6852;51.686;5.314;2022-09-27T00:41:45;1.13;;;0.37;;
13560;SDS011;6852;51.686;5.314;2022-09-27T00:49:42;1.67;;;0.50;;
13560;SDS011;6852;51.686;5.314;2022-09-27T00:52:40;4.53;;;0.40;;
13560;SDS011;6852;51.686;5.314;2022-09-27T00:55:15;2.03;;;0.80;;
13560;SDS011;6852;51.686;5.314;2022-09-27T00:57:45;4.30;;;1.00;;
13560;SDS011;6852;51.686;5.314;2022-09-27T01:00:14;1.60;;;0.83;;
13560;SDS011;6852;51.686;5.314;2022-09-27T01:02:45;1.87;;;0.33;;
13560;SDS011;6852;51.686;5.314;2022-09-27T01:05:15;5.20;;;0.57;;
13560;SDS011;6852;51.686;5.314;2022-09-27T01:07:45;3.23;;;0.50;;
13560;SDS011;6852;51.686;5.314;2022-09-27T01:10:12;2.37;;;0.50;;
13560;SDS011;6852;51.686;5.314;2022-09-27T01:12:50;8.63;;;0.93;;
13560;SDS011;6852;51.686;5.314;2022-09-27T01:15:32;4.23;;;0.60;;
13560;SDS011;6852;51.686;5.314;2022-09-27T01:18:22;4.67;;;0.40;;
13560;SDS011;6852;51.686;5.314;2022-09-27T01:23:52;2.37;;;0.50;;
13560;SDS011;6852;51.686;5.314;2022-09-27T01:34:49;3.40;;;1.10;;
13560;SDS011;6852;51.686;5.314;2022-09-27T01:40:28;4.00;;;0.50;;
13560;SDS011;6852;51.686;5.314;2022-09-27T01:43:28;3.80;;;0.57;;
13560;SDS011;6852;51.686;5.314;2022-09-27T01:46:04;3.97;;;0.80;;
13560;SDS011;6852;51.686;5.314;2022-09-27T01:48:58;0.80;;;0.40;;
13560;SDS011;6852;51.686;5.314;2022-09-27T01:51:29;2.23;;;0.60;;
13560;SDS011;6852;51.686;5.314;2022-09-27T01:54:01;2.37;;;0.60;;
13560;SDS011;6852;51.686;5.314;2022-09-27T01:56:31;3.03;;;0.33;;
13560;SDS011;6852;51.686;5.314;2022-09-27T02:01:35;1.57;;;0.60;;
13560;SDS011;6852;51.686;5.314;2022-09-27T02:04:05;5.53;;;0.50;;
13560;SDS011;6852;51.686;5.314;2022-09-27T02:06:38;3.73;;;0.77;;
13560;SDS011;6852;51.686;5.314;2022-09-27T02:09:41;3.40;;;0.57;;
13560;SDS011;6852;51.686;5.314;2022-09-27T02:12:14;2.10;;;0.43;;
13560;SDS011;6852;51.686;5.314;2022-09-27T02:17:32;1.47;;;0.30;;
13560;SDS011;6852;51.686;5.314;2022-09-27T02:20:30;1.73;;;0.43;;
13560;SDS011;6852;51.686;5.314;2022-09-27T02:23:20;2.27;;;0.50;;
13560;SDS011;6852;51.686;5.314;2022-09-27T02:25:56;1.37;;;0.50;;
13560;SDS011;6852;51.686;5.314;2022-09-27T02:28:32;3.20;;;0.63;;
13560;SDS011;6852;51.686;5.314;2022-09-27T02:31:04;2.90;;;0.60;;
13560;SDS011;6852;51.686;5.314;2022-09-27T02:33:33;1.40;;;0.40;;
13560;SDS011;6852;51.686;5.314;2022-09-27T02:36:08;2.90;;;0.33;;
13560;SDS011;6852;51.686;5.314;2022-09-27T02:38:35;3.17;;;0.40;;
13560;SDS011;6852;51.686;5.314;2022-09-27T02:41:02;1.67;;;0.50;;
13560;SDS011;6852;51.686;5.314;2022-09-27T02:43:29;1.23;;;0.30;;
13560;SDS011;6852;51.686;5.314;2022-09-27T02:49:18;4.77;;;0.70;;
13560;SDS011;6852;51.686;5.314;2022-09-27T02:52:08;1.40;;;0.53;;
13560;SDS011;6852;51.686;5.314;2022-09-27T02:54:44;3.23;;;0.70;;
13560;SDS011;6852;51.686;5.314;2022-09-27T03:00:03;2.87;;;0.53;;
13560;SDS011;6852;51.686;5.314;2022-09-27T03:05:21;2.93;;;0.40;;
13560;SDS011;6852;51.686;5.314;2022-09-27T03:07:51;3.93;;;0.70;;
13560;SDS011;6852;51.686;5.314;2022-09-27T03:10:20;1.60;;;0.40;;
13560;SDS011;6852;51.686;5.314;2022-09-27T03:12:49;2.60;;;0.43;;
13560;SDS011;6852;51.686;5.314;2022-09-27T03:15:16;6.43;;;0.90;;
13560;SDS011;6852;51.686;5.314;2022-09-27T03:17:43;5.30;;;0.73;;
13560;SDS011;6852;51.686;5.314;2022-09-27T03:20:09;4.60;;;0.90;;
13560;SDS011;6852;51.686;5.314;2022-09-27T03:22:36;4.93;;;0.87;;
13560;SDS011;6852;51.686;5.314;2022-09-27T03:25:04;3.63;;;0.60;;
13560;SDS011;6852;51.686;5.314;2022-09-27T03:27:31;4.73;;;0.80;;
13560;SDS011;6852;51.686;5.314;2022-09-27T03:29:58;2.67;;;0.70;;
13560;SDS011;6852;51.686;5.314;2022-09-27T03:32:25;3.03;;;0.70;;
13560;SDS011;6852;51.686;5.314;2022-09-27T03:34:52;3.27;;;0.73;;
13560;SDS011;6852;51.686;5.314;2022-09-27T03:37:20;2.83;;;0.63;;
13560;SDS011;6852;51.686;5.314;2022-09-27T03:39:47;4.13;;;0.90;;
13560;SDS011;6852;51.686;5.314;2022-09-27T03:42:14;8.77;;;1.00;;
13560;SDS011;6852;51.686;5.314;2022-09-27T03:44:41;4.67;;;0.80;;
13560;SDS011;6852;51.686;5.314;2022-09-27T03:47:08;4.17;;;1.10;;
13560;SDS011;6852;51.686;5.314;2022-09-27T03:49:35;1.80;;;0.60;;
13560;SDS011;6852;51.686;5.314;2022-09-27T03:52:01;2.73;;;0.40;;
13560;SDS011;6852;51.686;5.314;2022-09-27T03:54:28;1.33;;;0.70;;
13560;SDS011;6852;51.686;5.314;2022-09-27T03:56:55;3.83;;;0.60;;
13560;SDS011;6852;51.686;5.314;2022-09-27T03:59:22;2.10;;;0.50;;
13560;SDS011;6852;51.686;5.314;2022-09-27T04:01:48;1.37;;;0.30;;
13560;SDS011;6852;51.686;5.314;2022-09-27T04:04:15;2.57;;;0.40;;
13560;SDS011;6852;51.686;5.314;2022-09-27T04:06:42;2.00;;;0.50;;
13560;SDS011;6852;51.686;5.314;2022-09-27T04:09:09;2.53;;;0.30;;
13560;SDS011;6852;51.686;5.314;2022-09-27T04:11:36;2.37;;;0.50;;
13560;SDS011;6852;51.686;5.314;2022-09-27T04:14:02;3.00;;;0.60;;
13560;SDS011;6852;51.686;5.314;2022-09-27T04:16:30;2.97;;;0.30;;
13560;SDS011;6852;51.686;5.314;2022-09-27T04:18:59;1.37;;;0.50;;
13560;SDS011;6852;51.686;5.314;2022-09-27T04:21:26;5.13;;;0.60;;
13560;SDS011;6852;51.686;5.314;2022-09-27T04:23:53;3.63;;;0.77;;
13560;SDS011;6852;51.686;5.314;2022-09-27T04:26:20;3.40;;;0.50;;
13560;SDS011;6852;51.686;5.314;2022-09-27T04:28:47;0.87;;;0.30;;
13560;SDS011;6852;51.686;5.314;2022-09-27T04:31:20;2.07;;;0.50;;
13560;SDS011;6852;51.686;5.314;2022-09-27T04:33:47;3.17;;;0.37;;
13560;SDS011;6852;51.686;5.314;2022-09-27T04:36:17;2.53;;;0.40;;
13560;SDS011;6852;51.686;5.314;2022-09-27T04:38:54;1.90;;;0.47;;
13560;SDS011;6852;51.686;5.314;2022-09-27T04:41:23;3.67;;;0.37;;
13560;SDS011;6852;51.686;5.314;2022-09-27T04:43:51;5.03;;;0.63;;
13560;SDS011;6852;51.686;5.314;2022-09-27T04:46:24;2.30;;;0.30;;
13560;SDS011;6852;51.686;5.314;2022-09-27T04:48:52;1.90;;;0.33;;
13560;SDS011;6852;51.686;5.314;2022-09-27T04:51:18;3.47;;;0.50;;
13560;SDS011;6852;51.686;5.314;2022-09-27T04:53:46;2.13;;;0.60;;
13560;SDS011;6852;51.686;5.314;2022-09-27T04:56:12;1.90;;;0.60;;
13560;SDS011;6852;51.686;5.314;2022-09-27T04:58:41;2.10;;;0.70;;
13560;SDS011;6852;51.686;5.314;2022-09-27T05:01:08;3.90;;;0.60;;
13560;SDS011;6852;51.686;5.314;2022-09-27T05:03:35;1.73;;;0.40;;
13560;SDS011;6852;51.686;5.314;2022-09-27T05:06:02;2.27;;;0.53;;
13560;SDS011;6852;51.686;5.314;2022-09-27T05:08:29;4.83;;;0.53;;
13560;SDS011;6852;51.686;5.314;2022-09-27T05:10:56;1.17;;;0.67;;
13560;SDS011;6852;51.686;5.314;2022-09-27T05:13:23;4.30;;;0.40;;
13560;SDS011;6852;51.686;5.314;2022-09-27T05:15:50;3.73;;;0.43;;
13560;SDS011;6852;51.686;5.314;2022-09-27T05:18:17;4.57;;;0.50;;
13560;SDS011;6852;51.686;5.314;2022-09-27T05:20:44;0.40;;;0.10;;
13560;SDS011;6852;51.686;5.314;2022-09-27T05:23:11;3.57;;;0.57;;
13560;SDS011;6852;51.686;5.314;2022-09-27T05:25:38;1.53;;;0.50;;
13560;SDS011;6852;51.686;5.314;2022-09-27T05:28:04;2.70;;;0.40;;
13560;SDS011;6852;51.686;5.314;2022-09-27T05:30:31;1.57;;;0.53;;
13560;SDS011;6852;51.686;5.314;2022-09-27T05:32:58;3.40;;;0.40;;
13560;SDS011;6852;51.686;5.314;2022-09-27T05:35:25;2.73;;;0.93;;
13560;SDS011;6852;51.686;5.314;2022-09-27T05:37:53;4.90;;;0.70;;
13560;SDS011;6852;51.686;5.314;2022-09-27T05:40:23;2.37;;;1.03;;
13560;SDS011;6852;51.686;5.314;2022-09-27T05:43:07;2.57;;;0.40;;
13560;SDS011;6852;51.686;5.314;2022-09-27T05:45:34;2.20;;;0.37;;
13560;SDS011;6852;51.686;5.314;2022-09-27T05:48:01;2.40;;;0.60;;
13560;SDS011;6852;51.686;5.314;2022-09-27T05:50:29;1.47;;;0.50;;
13560;SDS011;6852;51.686;5.314;2022-09-27T05:52:56;2.20;;;0.50;;
13560;SDS011;6852;51.686;5.314;2022-09-27T05:55:23;3.33;;;0.67;;
13560;SDS011;6852;51.686;5.314;2022-09-27T05:57:56;2.37;;;0.83;;
13560;SDS011;6852;51.686;5.314;2022-09-27T06:00:24;2.27;;;0.47;;
13560;SDS011;6852;51.686;5.314;2022-09-27T06:02:55;1.57;;;0.30;;
13560;SDS011;6852;51.686;5.314;2022-09-27T06:05:24;1.40;;;0.40;;
13560;SDS011;6852;51.686;5.314;2022-09-27T06:08:00;0.97;;;0.50;;
13560;SDS011;6852;51.686;5.314;2022-09-27T06:10:29;0.63;;;0.30;;
13560;SDS011;6852;51.686;5.314;2022-09-27T06:13:03;0.73;;;0.50;;
13560;SDS011;6852;51.686;5.314;2022-09-27T06:15:32;0.97;;;0.50;;
13560;SDS011;6852;51.686;5.314;2022-09-27T06:18:10;1.13;;;0.50;;
13560;SDS011;6852;51.686;5.314;2022-09-27T06:20:40;2.63;;;0.70;;
13560;SDS011;6852;51.686;5.314;2022-09-27T06:23:09;0.87;;;0.50;;
13560;SDS011;6852;51.686;5.314;2022-09-27T06:25:38;3.47;;;0.60;;
13560;SDS011;6852;51.686;5.314;2022-09-27T06:28:05;0.73;;;0.50;;
13560;SDS011;6852;51.686;5.314;2022-09-27T06:30:36;2.73;;;0.60;;
13560;SDS011;6852;51.686;5.314;2022-09-27T06:33:04;0.37;;;0.37;;
13560;SDS011;6852;51.686;5.314;2022-09-27T06:35:33;0.83;;;0.40;;
13560;SDS011;6852;51.686;5.314;2022-09-27T06:38:02;2.33;;;0.60;;
13560;SDS011;6852;51.686;5.314;2022-09-27T06:40:30;2.30;;;0.40;;
13560;SDS011;6852;51.686;5.314;2022-09-27T06:43:04;2.53;;;0.60;;
13560;SDS011;6852;51.686;5.314;2022-09-27T06:45:33;1.30;;;0.60;;
13560;SDS011;6852;51.686;5.314;2022-09-27T06:48:01;2.97;;;0.80;;
13560;SDS011;6852;51.686;5.314;2022-09-27T06:50:29;1.53;;;0.60;;
13560;SDS011;6852;51.686;5.314;2022-09-27T06:52:58;0.93;;;0.47;;
13560;SDS011;6852;51.686;5.314;2022-09-27T06:55:25;1.03;;;0.40;;
13560;SDS011;6852;51.686;5.314;2022-09-27T06:57:55;2.43;;;1.23;;
13560;SDS011;6852;51.686;5.314;2022-09-27T07:00:43;3.40;;;0.63;;
13560;SDS011;6852;51.686;5.314;2022-09-27T07:03:13;2.83;;;0.60;;
13560;SDS011;6852;51.686;5.314;2022-09-27T07:05:40;1.53;;;0.57;;
13560;SDS011;6852;51.686;5.314;2022-09-27T07:08:10;1.97;;;0.80;;
13560;SDS011;6852;51.686;5.314;2022-09-27T07:10:38;0.87;;;0.67;;
13560;SDS011;6852;51.686;5.314;2022-09-27T07:13:06;1.23;;;0.80;;
13560;SDS011;6852;51.686;5.314;2022-09-27T07:15:34;3.67;;;0.87;;
13560;SDS011;6852;51.686;5.314;2022-09-27T07:18:03;0.77;;;0.73;;
13560;SDS011;6852;51.686;5.314;2022-09-27T07:20:30;1.33;;;0.80;;
13560;SDS011;6852;51.686;5.314;2022-09-27T07:22:58;3.03;;;0.97;;
13560;SDS011;6852;51.686;5.314;2022-09-27T07:25:25;4.30;;;1.17;;
13560;SDS011;6852;51.686;5.314;2022-09-27T07:27:51;3.07;;;0.97;;
13560;SDS011;6852;51.686;5.314;2022-09-27T07:30:18;1.77;;;0.90;;
13560;SDS011;6852;51.686;5.314;2022-09-27T07:32:46;2.33;;;1.10;;
13560;SDS011;6852;51.686;5.314;2022-09-27T07:35:13;6.47;;;1.63;;
13560;SDS011;6852;51.686;5.314;2022-09-27T07:37:40;2.43;;;1.10;;
13560;SDS011;6852;51.686;5.314;2022-09-27T07:40:08;2.90;;;1.30;;
13560;SDS011;6852;51.686;5.314;2022-09-27T07:42:36;3.50;;;1.63;;
13560;SDS011;6852;51.686;5.314;2022-09-27T07:45:07;3.07;;;1.80;;
13560;SDS011;6852;51.686;5.314;2022-09-27T07:47:34;1.87;;;1.50;;
13560;SDS011;6852;51.686;5.314;2022-09-27T07:50:08;4.17;;;1.90;;
13560;SDS011;6852;51.686;5.314;2022-09-27T07:52:39;2.30;;;1.63;;
13560;SDS011;6852;51.686;5.314;2022-09-27T07:55:07;3.93;;;1.90;;
13560;SDS011;6852;51.686;5.314;2022-09-27T07:57:36;3.60;;;2.47;;
13560;SDS011;6852;51.686;5.314;2022-09-27T08:00:03;4.17;;;2.17;;
13560;SDS011;6852;51.686;5.314;2022-09-27T08:02:32;4.87;;;2.30;;
13560;SDS011;6852;51.686;5.314;2022-09-27T08:04:59;4.33;;;2.50;;
13560;SDS011;6852;51.686;5.314;2022-09-27T08:07:26;4.03;;;2.70;;
13560;SDS011;6852;51.686;5.314;2022-09-27T08:09:53;4.33;;;3.47;;
13560;SDS011;6852;51.686;5.314;2022-09-27T08:12:21;6.93;;;3.70;;
13560;SDS011;6852;51.686;5.314;2022-09-27T08:14:48;4.07;;;3.67;;
13560;SDS011;6852;51.686;5.314;2022-09-27T08:17:15;5.03;;;3.40;;
13560;SDS011;6852;51.686;5.314;2022-09-27T08:19:42;4.70;;;3.17;;
13560;SDS011;6852;51.686;5.314;2022-09-27T08:22:10;7.33;;;4.00;;
13560;SDS011;6852;51.686;5.314;2022-09-27T08:24:39;6.00;;;3.57;;
13560;SDS011;6852;51.686;5.314;2022-09-27T08:27:06;4.20;;;3.03;;
13560;SDS011;6852;51.686;5.314;2022-09-27T08:29:37;6.50;;;3.50;;
13560;SDS011;6852;51.686;5.314;2022-09-27T08:32:10;6.47;;;3.70;;
13560;SDS011;6852;51.686;5.314;2022-09-27T08:34:37;3.90;;;3.50;;
13560;SDS011;6852;51.686;5.314;2022-09-27T08:37:04;4.17;;;3.20;;
13560;SDS011;6852;51.686;5.314;2022-09-27T08:39:31;4.77;;;3.43;;
13560;SDS011;6852;51.686;5.314;2022-09-27T08:42:04;3.30;;;3.00;;
13560;SDS011;6852;51.686;5.314;2022-09-27T08:44:57;5.03;;;3.17;;
13560;SDS011;6852;51.686;5.314;2022-09-27T08:47:44;7.40;;;3.60;;
13560;SDS011;6852;51.686;5.314;2022-09-27T08:50:25;5.13;;;3.43;;
13560;SDS011;6852;51.686;5.314;2022-09-27T08:55:53;5.67;;;3.40;;
13560;SDS011;6852;51.686;5.314;2022-09-27T08:58:33;5.33;;;3.30;;
13560;SDS011;6852;51.686;5.314;2022-09-27T09:01:03;4.77;;;3.70;;
13560;SDS011;6852;51.686;5.314;2022-09-27T09:03:33;5.77;;;3.33;;
13560;SDS011;6852;51.686;5.314;2022-09-27T09:06:07;5.13;;;3.27;;
13560;SDS011;6852;51.686;5.314;2022-09-27T09:14:15;5.57;;;3.10;;
13560;SDS011;6852;51.686;5.314;2022-09-27T09:29:03;6.23;;;2.50;;
13560;SDS011;6852;51.686;5.314;2022-09-27T09:31:41;2.90;;;2.13;;
13560;SDS011;6852;51.686;5.314;2022-09-27T09:34:36;2.10;;;1.90;;
13560;SDS011;6852;51.686;5.314;2022-09-27T09:37:22;2.53;;;1.37;;
13560;SDS011;6852;51.686;5.314;2022-09-27T09:39:57;3.43;;;1.20;;
13560;SDS011;6852;51.686;5.314;2022-09-27T09:42:36;0.67;;;0.67;;
13560;SDS011;6852;51.686;5.314;2022-09-27T09:47:46;3.07;;;0.80;;
13560;SDS011;6852;51.686;5.314;2022-09-27T09:50:26;1.80;;;1.30;;
13560;SDS011;6852;51.686;5.314;2022-09-27T09:52:58;2.17;;;1.50;;
13560;SDS011;6852;51.686;5.314;2022-09-27T09:55:35;5.27;;;2.03;;
13560;SDS011;6852;51.686;5.314;2022-09-27T10:00:49;2.80;;;1.47;;
13560;SDS011;6852;51.686;5.314;2022-09-27T10:03:19;2.33;;;1.33;;
13560;SDS011;6852;51.686;5.314;2022-09-27T10:05:46;2.13;;;1.50;;
13560;SDS011;6852;51.686;5.314;2022-09-27T10:08:17;4.37;;;1.23;;
13560;SDS011;6852;51.686;5.314;2022-09-27T10:10:46;2.40;;;1.40;;
13560;SDS011;6852;51.686;5.314;2022-09-27T10:13:17;4.47;;;1.40;;
13560;SDS011;6852;51.686;5.314;2022-09-27T10:15:49;2.30;;;0.50;;
13560;SDS011;6852;51.686;5.314;2022-09-27T10:18:21;1.67;;;0.60;;
13560;SDS011;6852;51.686;5.314;2022-09-27T10:20:54;3.10;;;0.53;;
13560;SDS011;6852;51.686;5.314;2022-09-27T10:23:24;1.13;;;0.30;;
13560;SDS011;6852;51.686;5.314;2022-09-27T10:25:55;1.23;;;0.83;;
13560;SDS011;6852;51.686;5.314;2022-09-27T10:31:06;2.70;;;0.50;;
13560;SDS011;6852;51.686;5.314;2022-09-27T10:33:36;2.10;;;0.50;;
13560;SDS011;6852;51.686;5.314;2022-09-27T10:36:06;0.63;;;0.30;;
13560;SDS011;6852;51.686;5.314;2022-09-27T10:39:20;2.53;;;0.50;;
13560;SDS011;6852;51.686;5.314;2022-09-27T10:41:48;0.73;;;0.40;;
13560;SDS011;6852;51.686;5.314;2022-09-27T10:46:49;3.33;;;0.60;;
13560;SDS011;6852;51.686;5.314;2022-09-27T10:49:24;1.33;;;0.30;;
13560;SDS011;6852;51.686;5.314;2022-09-27T10:52:07;0.63;;;0.30;;
13560;SDS011;6852;51.686;5.314;2022-09-27T10:54:43;2.60;;;0.60;;
13560;SDS011;6852;51.686;5.314;2022-09-27T10:57:30;1.30;;;0.30;;
13560;SDS011;6852;51.686;5.314;2022-09-27T11:00:32;1.23;;;0.40;;
13560;SDS011;6852;51.686;5.314;2022-09-27T11:02:59;2.43;;;0.63;;
13560;SDS011;6852;51.686;5.314;2022-09-27T11:05:38;0.97;;;0.43;;
13560;SDS011;6852;51.686;5.314;2022-09-27T11:10:58;1.83;;;0.40;;
13560;SDS011;6852;51.686;5.314;2022-09-27T11:13:40;0.57;;;0.30;;
13560;SDS011;6852;51.686;5.314;2022-09-27T11:19:15;0.67;;;0.50;;
13560;SDS011;6852;51.686;5.314;2022-09-27T11:35:36;1.47;;;0.60;;
13560;SDS011;6852;51.686;5.314;2022-09-27T11:38:16;1.07;;;0.37;;
13560;SDS011;6852;51.686;5.314;2022-09-27T11:41:09;1.27;;;0.47;;
13560;SDS011;6852;51.686;5.314;2022-09-27T11:46:37;1.43;;;0.40;;
13560;SDS011;6852;51.686;5.314;2022-09-27T11:49:23;0.50;;;0.33;;
13560;SDS011;6852;51.686;5.314;2022-09-27T11:52:07;1.07;;;0.30;;
13560;SDS011;6852;51.686;5.314;2022-09-27T11:57:32;1.50;;;0.30;;
13560;SDS011;6852;51.686;5.314;2022-09-27T12:00:08;0.53;;;0.47;;
13560;SDS011;6852;51.686;5.314;2022-09-27T12:03:13;3.50;;;1.27;;
13560;SDS011;6852;51.686;5.314;2022-09-27T12:13:55;2.93;;;0.80;;
13560;SDS011;6852;51.686;5.314;2022-09-27T12:16:37;1.10;;;0.57;;
13560;SDS011;6852;51.686;5.314;2022-09-27T12:19:09;3.87;;;0.50;;
13560;SDS011;6852;51.686;5.314;2022-09-27T12:21:44;2.10;;;0.40;;
13560;SDS011;6852;51.686;5.314;2022-09-27T12:24:14;1.27;;;0.40;;
13560;SDS011;6852;51.686;5.314;2022-09-27T12:26:46;2.63;;;0.70;;
13560;SDS011;6852;51.686;5.314;2022-09-27T12:29:25;1.53;;;0.47;;
13560;SDS011;6852;51.686;5.314;2022-09-27T12:34:54;1.23;;;0.67;;
13560;SDS011;6852;51.686;5.314;2022-09-27T12:37:37;0.77;;;0.57;;
13560;SDS011;6852;51.686;5.314;2022-09-27T12:42:45;0.43;;;0.23;;
13560;SDS011;6852;51.686;5.314;2022-09-27T12:45:14;1.50;;;0.63;;
13560;SDS011;6852;51.686;5.314;2022-09-27T12:50:40;1.70;;;0.40;;
13560;SDS011;6852;51.686;5.314;2022-09-27T12:53:16;0.93;;;0.60;;
13560;SDS011;6852;51.686;5.314;2022-09-27T13:01:16;1.07;;;0.67;;
13560;SDS011;6852;51.686;5.314;2022-09-27T13:03:54;0.50;;;0.20;;
13560;SDS011;6852;51.686;5.314;2022-09-27T13:09:45;1.43;;;0.20;;
13560;SDS011;6852;51.686;5.314;2022-09-27T13:12:21;0.70;;;0.40;;
13560;SDS011;6852;51.686;5.314;2022-09-27T13:14:56;0.50;;;0.20;;
13560;SDS011;6852;51.686;5.314;2022-09-27T13:25:53;1.13;;;0.30;;
13560;SDS011;6852;51.686;5.314;2022-09-27T13:30:55;0.80;;;0.43;;
13560;SDS011;6852;51.686;5.314;2022-09-27T13:33:30;0.67;;;0.30;;
13560;SDS011;6852;51.686;5.314;2022-09-27T13:36:19;1.00;;;0.40;;
13560;SDS011;6852;51.686;5.314;2022-09-27T13:46:59;2.07;;;0.50;;
13560;SDS011;6852;51.686;5.314;2022-09-27T13:49:41;2.23;;;0.60;;
13560;SDS011;6852;51.686;5.314;2022-09-27T13:54:54;1.03;;;0.70;;
13560;SDS011;6852;51.686;5.314;2022-09-27T14:01:08;1.93;;;1.00;;
13560;SDS011;6852;51.686;5.314;2022-09-27T14:05:52;1.37;;;0.73;;
13560;SDS011;6852;51.686;5.314;2022-09-27T14:08:39;1.03;;;0.73;;
13560;SDS011;6852;51.686;5.314;2022-09-27T14:11:22;2.47;;;1.00;;
13560;SDS011;6852;51.686;5.314;2022-09-27T14:13:55;6.77;;;1.40;;
13560;SDS011;6852;51.686;5.314;2022-09-27T14:16:23;1.47;;;1.07;;
13560;SDS011;6852;51.686;5.314;2022-09-27T14:18:55;2.87;;;1.00;;
13560;SDS011;6852;51.686;5.314;2022-09-27T14:26:47;3.00;;;0.70;;
13560;SDS011;6852;51.686;5.314;2022-09-27T14:29:19;1.90;;;0.90;;
13560;SDS011;6852;51.686;5.314;2022-09-27T14:32:01;1.40;;;1.00;;
13560;SDS011;6852;51.686;5.314;2022-09-27T14:34:29;1.50;;;0.63;;
13560;SDS011;6852;51.686;5.314;2022-09-27T14:36:56;3.00;;;0.93;;
13560;SDS011;6852;51.686;5.314;2022-09-27T14:39:42;1.30;;;0.70;;
13560;SDS011;6852;51.686;5.314;2022-09-27T14:42:20;2.57;;;1.00;;
13560;SDS011;6852;51.686;5.314;2022-09-27T14:44:50;3.57;;;0.90;;
13560;SDS011;6852;51.686;5.314;2022-09-27T14:47:22;2.20;;;1.20;;
13560;SDS011;6852;51.686;5.314;2022-09-27T14:49:52;1.80;;;0.63;;
13560;SDS011;6852;51.686;5.314;2022-09-27T14:52:24;2.17;;;1.00;;
13560;SDS011;6852;51.686;5.314;2022-09-27T14:54:56;2.80;;;0.90;;
13560;SDS011;6852;51.686;5.314;2022-09-27T14:57:33;1.70;;;0.65;;
13560;SDS011;6852;51.686;5.314;2022-09-27T15:00:14;3.50;;;0.90;;
13560;SDS011;6852;51.686;5.314;2022-09-27T15:02:43;2.07;;;0.97;;
13560;SDS011;6852;51.686;5.314;2022-09-27T15:05:14;1.40;;;0.90;;
13560;SDS011;6852;51.686;5.314;2022-09-27T15:07:43;3.30;;;0.70;;
13560;SDS011;6852;51.686;5.314;2022-09-27T15:10:13;1.47;;;0.80;;
13560;SDS011;6852;51.686;5.314;2022-09-27T15:12:43;2.73;;;1.13;;
13560;SDS011;6852;51.686;5.314;2022-09-27T15:15:14;2.37;;;1.43;;
13560;SDS011;6852;51.686;5.314;2022-09-27T15:17:44;1.80;;;1.10;;
13560;SDS011;6852;51.686;5.314;2022-09-27T15:20:33;1.83;;;1.00;;
13560;SDS011;6852;51.686;5.314;2022-09-27T15:23:03;2.60;;;1.10;;
13560;SDS011;6852;51.686;5.314;2022-09-27T15:25:34;2.93;;;0.90;;
13560;SDS011;6852;51.686;5.314;2022-09-27T15:30:38;3.60;;;1.50;;
13560;SDS011;6852;51.686;5.314;2022-09-27T15:33:16;2.73;;;1.10;;
13560;SDS011;6852;51.686;5.314;2022-09-27T15:35:49;2.20;;;0.70;;
13560;SDS011;6852;51.686;5.314;2022-09-27T15:38:22;4.87;;;0.93;;
13560;SDS011;6852;51.686;5.314;2022-09-27T15:40:56;1.77;;;0.60;;
13560;SDS011;6852;51.686;5.314;2022-09-27T15:43:37;4.53;;;0.90;;
13560;SDS011;6852;51.686;5.314;2022-09-27T15:51:44;2.07;;;0.57;;
13560;SDS011;6852;51.686;5.314;2022-09-27T15:54:12;2.57;;;0.60;;
13560;SDS011;6852;51.686;5.314;2022-09-27T15:56:38;3.93;;;0.80;;
13560;SDS011;6852;51.686;5.314;2022-09-27T15:59:06;3.30;;;0.87;;
13560;SDS011;6852;51.686;5.314;2022-09-27T16:01:48;2.50;;;0.80;;
13560;SDS011;6852;51.686;5.314;2022-09-27T16:04:19;3.83;;;0.80;;
13560;SDS011;6852;51.686;5.314;2022-09-27T16:06:46;1.83;;;0.70;;
13560;SDS011;6852;51.686;5.314;2022-09-27T16:09:14;2.30;;;0.50;;
13560;SDS011;6852;51.686;5.314;2022-09-27T16:11:46;2.13;;;0.63;;
13560;SDS011;6852;51.686;5.314;2022-09-27T16:14:14;0.97;;;0.40;;
13560;SDS011;6852;51.686;5.314;2022-09-27T16:17:02;2.33;;;0.60;;
13560;SDS011;6852;51.686;5.314;2022-09-27T16:19:28;3.00;;;0.67;;
13560;SDS011;6852;51.686;5.314;2022-09-27T16:21:55;2.40;;;0.60;;
13560;SDS011;6852;51.686;5.314;2022-09-27T16:24:22;2.37;;;0.90;;
13560;SDS011;6852;51.686;5.314;2022-09-27T16:26:50;2.30;;;0.63;;
13560;SDS011;6852;51.686;5.314;2022-09-27T16:29:17;4.30;;;1.00;;
13560;SDS011;6852;51.686;5.314;2022-09-27T16:31:44;4.03;;;0.70;;
13560;SDS011;6852;51.686;5.314;2022-09-27T16:34:11;3.53;;;0.70;;
13560;SDS011;6852;51.686;5.314;2022-09-27T16:36:39;4.70;;;1.30;;
13560;SDS011;6852;51.686;5.314;2022-09-27T16:39:06;2.27;;;0.70;;
13560;SDS011;6852;51.686;5.314;2022-09-27T16:41:38;3.43;;;1.03;;
13560;SDS011;6852;51.686;5.314;2022-09-27T16:44:09;2.43;;;0.80;;
13560;SDS011;6852;51.686;5.314;2022-09-27T16:46:39;2.70;;;0.80;;
13560;SDS011;6852;51.686;5.314;2022-09-27T16:49:06;2.47;;;0.80;;
13560;SDS011;6852;51.686;5.314;2022-09-27T16:51:53;2.23;;;0.80;;
13560;SDS011;6852;51.686;5.314;2022-09-27T16:54:27;2.80;;;0.70;;
13560;SDS011;6852;51.686;5.314;2022-09-27T16:56:58;3.50;;;1.07;;
13560;SDS011;6852;51.686;5.314;2022-09-27T16:59:25;1.33;;;0.87;;
13560;SDS011;6852;51.686;5.314;2022-09-27T17:01:52;2.63;;;2.07;;
13560;SDS011;6852;51.686;5.314;2022-09-27T17:04:24;1.67;;;1.00;;
13560;SDS011;6852;51.686;5.314;2022-09-27T17:06:53;2.17;;;1.10;;
13560;SDS011;6852;51.686;5.314;2022-09-27T17:09:20;1.83;;;0.90;;
13560;SDS011;6852;51.686;5.314;2022-09-27T17:11:47;3.23;;;0.93;;
13560;SDS011;6852;51.686;5.314;2022-09-27T17:14:15;2.67;;;1.20;;
13560;SDS011;6852;51.686;5.314;2022-09-27T17:16:43;1.70;;;1.20;;
13560;SDS011;6852;51.686;5.314;2022-09-27T17:19:11;1.43;;;0.93;;
13560;SDS011;6852;51.686;5.314;2022-09-27T17:21:40;1.83;;;1.30;;
13560;SDS011;6852;51.686;5.314;2022-09-27T17:24:08;4.50;;;1.23;;
13560;SDS011;6852;51.686;5.314;2022-09-27T17:26:35;2.57;;;1.13;;
13560;SDS011;6852;51.686;5.314;2022-09-27T17:29:02;4.03;;;1.50;;
13560;SDS011;6852;51.686;5.314;2022-09-27T17:31:30;1.50;;;0.93;;
13560;SDS011;6852;51.686;5.314;2022-09-27T17:33:59;2.03;;;1.20;;
13560;SDS011;6852;51.686;5.314;2022-09-27T17:36:28;3.53;;;1.30;;
13560;SDS011;6852;51.686;5.314;2022-09-27T17:39:02;2.03;;;1.10;;
13560;SDS011;6852;51.686;5.314;2022-09-27T17:41:30;2.87;;;1.60;;
13560;SDS011;6852;51.686;5.314;2022-09-27T17:44:05;4.63;;;1.90;;
13560;SDS011;6852;51.686;5.314;2022-09-27T17:46:33;2.23;;;1.53;;
13560;SDS011;6852;51.686;5.314;2022-09-27T17:49:01;4.87;;;1.40;;
13560;SDS011;6852;51.686;5.314;2022-09-27T17:51:49;3.40;;;1.30;;
13560;SDS011;6852;51.686;5.314;2022-09-27T17:54:18;3.47;;;1.70;;
13560;SDS011;6852;51.686;5.314;2022-09-27T17:56:48;7.03;;;1.67;;
13560;SDS011;6852;51.686;5.314;2022-09-27T17:59:15;3.60;;;1.70;;
13560;SDS011;6852;51.686;5.314;2022-09-27T18:01:43;4.83;;;2.10;;
13560;SDS011;6852;51.686;5.314;2022-09-27T18:04:12;6.40;;;2.07;;